createdAt,value
2023-04-12T00:02:59.614Z,11.70
2023-04-12T00:06:07.454Z,11.40
2023-04-12T00:09:11.425Z,10.70
2023-04-12T00:12:15.377Z,11.10
2023-04-12T00:15:19.395Z,10.80
2023-04-12T00:18:25.514Z,10.40
2023-04-12T00:21:30.446Z,10.60
2023-04-12T00:24:34.441Z,10.30
2023-04-12T00:27:39.297Z,10.80
2023-04-12T00:30:43.583Z,10.00
2023-04-12T00:33:47.461Z,9.10
2023-04-12T00:36:51.516Z,9.60
2023-04-12T00:39:55.538Z,9.40
2023-04-12T00:42:59.463Z,8.30
2023-04-12T00:49:08.304Z,8.60
2023-04-12T00:52:15.794Z,7.90
2023-04-12T00:55:20.229Z,9.00
2023-04-12T00:58:24.551Z,8.40
2023-04-12T01:01:28.677Z,9.40
2023-04-12T01:04:34.579Z,8.10
2023-04-12T01:07:51.647Z,7.80
2023-04-12T01:11:12.972Z,7.40
2023-04-12T01:14:36.329Z,8.10
2023-04-12T01:17:59.884Z,6.50
2023-04-12T01:21:10.930Z,6.70
2023-04-12T01:24:26.738Z,6.00
2023-04-12T01:27:50.170Z,5.90
2023-04-12T01:30:56.251Z,5.30
2023-04-12T01:34:03.205Z,5.10
2023-04-12T01:37:08.761Z,5.70
2023-04-12T01:40:13.962Z,5.10
2023-04-12T01:43:18.310Z,6.10
2023-04-12T01:46:23.274Z,5.40
2023-04-12T01:49:36.582Z,5.50
2023-04-12T01:52:46.183Z,5.40
2023-04-12T01:55:52.215Z,6.10
2023-04-12T01:58:57.367Z,6.90
2023-04-12T02:02:03.654Z,6.70
2023-04-12T02:05:10.394Z,6.90
2023-04-12T02:08:14.418Z,7.60
2023-04-12T02:11:18.740Z,7.40
2023-04-12T02:14:23.003Z,7.40
2023-04-12T02:17:27.311Z,8.00
2023-04-12T02:20:31.513Z,8.60
2023-04-12T02:23:35.611Z,9.20
2023-04-12T02:26:40.297Z,9.80
2023-04-12T02:29:46.010Z,11.80
2023-04-12T02:32:51.504Z,10.80
2023-04-12T02:36:04.269Z,11.00
2023-04-12T02:39:09.101Z,11.00
2023-04-12T02:42:13.037Z,10.90
2023-04-12T02:45:17.262Z,12.00
2023-04-12T02:48:21.670Z,11.30
2023-04-12T02:51:26.186Z,11.40
2023-04-12T02:57:34.348Z,11.90
2023-04-12T03:00:38.913Z,12.00
2023-04-12T03:03:42.953Z,10.10
2023-04-12T03:07:02.051Z,12.40
2023-04-12T03:10:13.297Z,8.60
2023-04-12T03:13:21.254Z,11.40
2023-04-12T03:16:29.958Z,11.60
2023-04-12T03:19:42.137Z,10.70
2023-04-12T03:22:46.904Z,11.00
2023-04-12T03:25:51.125Z,10.60
2023-04-12T03:29:10.100Z,11.50
2023-04-12T03:32:15.550Z,10.30
2023-04-12T03:35:20.712Z,11.20
2023-04-12T03:38:25.410Z,11.30
2023-04-12T03:41:30.149Z,10.90
2023-04-12T03:44:36.294Z,11.20
2023-04-12T03:47:44.219Z,11.00
2023-04-12T03:50:48.852Z,10.40
2023-04-12T03:53:57.534Z,8.70
2023-04-12T03:57:02.281Z,10.80
2023-04-12T04:00:16.135Z,11.50
2023-04-12T04:03:35.833Z,8.70
2023-04-12T04:06:51.079Z,12.10
2023-04-12T04:09:56.123Z,10.90
2023-04-12T04:13:00.804Z,10.40
2023-04-12T04:19:11.203Z,11.10
2023-04-12T04:22:15.206Z,10.60
2023-04-12T04:25:19.910Z,11.60
2023-04-12T04:28:27.837Z,10.80
2023-04-12T04:31:36.607Z,10.90
2023-04-12T04:34:41.888Z,11.50
2023-04-12T04:37:52.887Z,10.50
2023-04-12T04:40:57.334Z,11.60
2023-04-12T04:44:10.646Z,10.30
2023-04-12T04:47:19.176Z,10.10
2023-04-12T04:50:24.434Z,12.30
2023-04-12T04:53:29.084Z,11.80
2023-04-12T04:56:34.083Z,10.20
2023-04-12T04:59:38.083Z,10.00
2023-04-12T05:02:51.782Z,10.30
2023-04-12T05:06:03.460Z,10.50
2023-04-12T05:09:08.514Z,11.90
2023-04-12T05:12:16.500Z,12.00
2023-04-12T05:15:23.463Z,12.80
2023-04-12T05:18:27.455Z,11.90
2023-04-12T05:21:33.151Z,11.10
2023-04-12T05:24:37.458Z,12.20
2023-04-12T05:27:41.585Z,10.50
2023-04-12T05:30:46.742Z,11.30
2023-04-12T05:33:54.629Z,12.40
2023-04-12T05:37:01.509Z,11.30
2023-04-12T05:40:09.913Z,13.00
2023-04-12T05:43:14.424Z,12.10
2023-04-12T05:46:18.518Z,11.70
2023-04-12T05:49:24.362Z,10.80
2023-04-12T05:52:28.552Z,10.60
2023-04-12T05:55:32.882Z,11.20
2023-04-12T05:58:37.293Z,10.50
2023-04-12T06:01:44.850Z,11.10
2023-04-12T06:04:50.943Z,11.70
2023-04-12T06:07:56.626Z,11.00
2023-04-12T06:11:00.729Z,11.60
2023-04-12T06:14:05.065Z,11.30
2023-04-12T06:17:09.084Z,11.80
2023-04-12T06:20:13.506Z,11.70
2023-04-12T06:26:23.666Z,10.50
2023-04-12T06:29:27.700Z,11.80
2023-04-12T06:32:31.971Z,12.20
2023-04-12T06:35:37.532Z,12.80
2023-04-12T06:38:44.453Z,12.10
2023-04-12T06:41:50.394Z,12.20
2023-04-12T06:44:57.199Z,11.90
2023-04-12T06:48:01.142Z,11.00
2023-04-12T06:51:05.553Z,10.00
2023-04-12T06:54:09.757Z,11.30
2023-04-12T06:57:14.258Z,10.60
2023-04-12T07:04:17.686Z,10.10
2023-04-12T07:07:22.020Z,10.80
2023-04-12T07:10:26.255Z,9.90
2023-04-12T07:13:31.141Z,10.60
2023-04-12T07:16:35.301Z,11.00
2023-04-12T07:19:42.000Z,9.90
2023-04-12T07:22:46.173Z,10.80
2023-04-12T07:25:50.174Z,10.30
2023-04-12T07:28:54.913Z,9.80
2023-04-12T07:32:00.472Z,9.70
2023-04-12T07:35:05.512Z,10.10
2023-04-12T07:38:09.513Z,10.20
2023-04-12T07:41:13.499Z,9.30
2023-04-12T07:44:17.547Z,9.60
2023-04-12T07:47:21.619Z,10.70
2023-04-12T07:50:25.829Z,10.80
2023-04-12T07:53:30.258Z,11.10
2023-04-12T07:56:35.869Z,11.30
2023-04-12T07:59:39.809Z,10.80
2023-04-12T08:02:43.862Z,11.70
2023-04-12T08:05:53.508Z,11.10
2023-04-12T08:08:57.761Z,11.60
2023-04-12T08:12:02.174Z,9.60
2023-04-12T08:15:07.118Z,10.70
2023-04-12T08:18:11.548Z,11.40
2023-04-12T08:21:15.546Z,10.40
2023-04-12T08:24:20.201Z,11.30
2023-04-12T08:27:24.320Z,9.80
2023-04-12T08:30:28.534Z,10.10
2023-04-12T08:33:32.525Z,10.60
2023-04-12T08:36:36.516Z,12.40
2023-04-12T08:39:40.580Z,12.30
2023-04-12T08:42:44.708Z,11.10
2023-04-12T08:45:50.197Z,11.00
2023-04-12T08:48:54.692Z,11.80
2023-04-12T08:52:01.564Z,10.10
2023-04-12T08:55:10.259Z,11.10
2023-04-12T08:58:15.397Z,9.90
2023-04-12T09:01:21.428Z,9.80
2023-04-12T09:04:29.649Z,8.50
2023-04-12T09:07:33.821Z,10.90
2023-04-12T09:10:38.704Z,10.00
2023-04-12T09:13:42.778Z,9.10
2023-04-12T09:16:48.278Z,8.80
2023-04-12T09:19:53.474Z,8.90
2023-04-12T09:22:57.792Z,9.40
2023-04-12T09:26:02.411Z,10.70
2023-04-12T09:32:11.088Z,10.30
2023-04-12T09:35:15.539Z,10.10
2023-04-12T09:38:19.566Z,9.80
2023-04-12T09:41:26.887Z,9.70
2023-04-12T09:44:31.436Z,9.90
2023-04-12T09:47:40.340Z,9.80
2023-04-12T09:50:45.952Z,9.20
2023-04-12T09:53:51.872Z,9.20
2023-04-12T09:56:57.517Z,9.10
2023-04-12T10:00:05.668Z,10.30
2023-04-12T10:03:15.672Z,10.50
2023-04-12T10:06:22.421Z,8.20
2023-04-12T10:09:26.711Z,10.80
2023-04-12T10:12:31.329Z,9.30
2023-04-12T10:15:36.482Z,9.60
2023-04-12T10:18:44.632Z,9.40
2023-04-12T10:21:48.702Z,9.90
2023-04-12T10:24:53.013Z,10.30
2023-04-12T10:27:57.281Z,10.70
2023-04-12T10:31:28.052Z,10.00
2023-04-12T10:34:32.320Z,10.40
2023-04-12T10:37:59.169Z,10.10
2023-04-12T10:41:19.419Z,10.40
2023-04-12T10:44:26.464Z,9.80
2023-04-12T10:47:48.885Z,9.40
2023-04-12T10:51:18.202Z,8.70
2023-04-12T10:54:23.161Z,7.80
2023-04-12T10:57:42.853Z,10.20
2023-04-12T11:00:59.550Z,8.00
2023-04-12T11:04:21.342Z,7.90
2023-04-12T11:07:46.425Z,7.80
2023-04-12T11:11:22.789Z,8.30
2023-04-12T11:14:46.181Z,7.90
2023-04-12T11:17:55.587Z,7.80
2023-04-12T11:21:00.171Z,7.20
2023-04-12T11:27:08.541Z,7.20
2023-04-12T11:30:12.965Z,7.30
2023-04-12T11:33:40.441Z,7.60
2023-04-12T11:36:53.670Z,7.60
2023-04-12T11:39:59.014Z,9.00
2023-04-12T11:43:03.077Z,9.10
2023-04-12T11:46:07.489Z,8.30
2023-04-12T11:49:19.055Z,8.70
2023-04-12T11:52:32.278Z,7.30
2023-04-12T11:55:36.602Z,7.70
2023-04-12T11:58:40.721Z,8.70
2023-04-12T12:01:44.785Z,8.60
2023-04-12T12:04:50.132Z,8.90
2023-04-12T12:07:55.107Z,8.10
2023-04-12T12:11:07.881Z,9.90
2023-04-12T12:14:12.980Z,8.20
2023-04-12T12:17:17.649Z,8.40
2023-04-12T12:20:22.339Z,9.20
2023-04-12T12:23:29.922Z,7.80
2023-04-12T12:26:36.020Z,8.30
2023-04-12T12:29:40.126Z,7.60
2023-04-12T12:32:45.205Z,8.00
2023-04-12T12:35:58.992Z,7.50
2023-04-12T12:39:15.472Z,9.30
2023-04-12T12:42:19.593Z,7.20
2023-04-12T12:45:25.966Z,8.60
2023-04-12T12:48:30.061Z,7.00
2023-04-12T12:51:34.134Z,7.70
2023-04-12T12:54:41.574Z,7.20
2023-04-12T12:57:58.390Z,7.00
2023-04-12T13:01:10.166Z,6.60
2023-04-12T13:04:14.505Z,7.70
2023-04-12T13:07:19.060Z,7.80
2023-04-12T13:10:23.974Z,5.80
2023-04-12T13:13:27.945Z,7.10
2023-04-12T13:16:31.871Z,7.10
2023-04-12T13:19:36.104Z,7.60
2023-04-12T13:22:40.515Z,9.00
2023-04-12T13:25:44.558Z,7.80
2023-04-12T13:28:48.795Z,7.30
2023-04-12T13:31:52.836Z,7.80
2023-04-12T13:34:56.864Z,7.10
2023-04-12T13:38:01.117Z,7.20
2023-04-12T13:41:05.497Z,7.40
2023-04-12T13:47:13.978Z,7.40
2023-04-12T13:50:18.101Z,6.90
2023-04-12T13:53:22.138Z,7.90
2023-04-12T13:56:28.273Z,7.10
2023-04-12T13:59:34.447Z,7.80
2023-04-12T14:02:38.640Z,6.80
2023-04-12T14:05:42.686Z,7.10
2023-04-12T14:08:48.254Z,6.70
2023-04-12T14:11:55.335Z,6.00
2023-04-12T14:14:59.340Z,7.40
2023-04-12T14:18:03.475Z,6.90
2023-04-12T14:21:09.809Z,7.00
2023-04-12T14:24:14.820Z,7.40
2023-04-12T14:27:19.082Z,7.70
2023-04-12T14:30:23.106Z,7.00
2023-04-12T14:33:27.213Z,7.80
2023-04-12T14:36:33.467Z,7.40
2023-04-12T14:39:37.913Z,7.20
2023-04-12T14:45:46.462Z,7.80
2023-04-12T14:51:54.383Z,7.20
2023-04-12T14:54:58.399Z,7.20
2023-04-12T14:58:02.430Z,7.70
2023-04-12T15:01:07.770Z,8.10
2023-04-12T15:04:12.787Z,7.50
2023-04-12T15:07:17.123Z,6.30
2023-04-12T15:10:21.558Z,7.30
2023-04-12T15:13:32.134Z,7.50
2023-04-12T15:16:38.334Z,9.50
2023-04-12T15:19:42.403Z,7.70
2023-04-12T15:22:46.647Z,8.80
2023-04-12T15:25:58.880Z,7.40
2023-04-12T15:29:02.874Z,8.50
2023-04-12T15:32:08.787Z,8.20
2023-04-12T15:38:23.431Z,8.90
2023-04-12T15:41:34.111Z,7.60
2023-04-12T15:44:38.087Z,8.20
2023-04-12T15:47:42.896Z,8.80
2023-04-12T15:50:48.891Z,9.30
2023-04-12T15:53:54.387Z,7.70
2023-04-12T15:56:59.891Z,8.30
2023-04-12T16:00:27.168Z,7.80
2023-04-12T16:03:31.836Z,8.50
2023-04-12T16:06:38.051Z,9.00
2023-04-12T16:09:42.354Z,8.60
2023-04-12T16:12:51.000Z,9.90
2023-04-12T16:15:55.057Z,11.50
2023-04-12T16:19:00.302Z,10.80
2023-04-12T16:22:04.803Z,10.00
2023-04-12T16:25:10.028Z,10.00
2023-04-12T16:28:17.737Z,10.30
2023-04-12T16:31:22.816Z,9.40
2023-04-12T16:34:26.926Z,9.80
2023-04-12T16:37:31.352Z,8.40
2023-04-12T16:40:35.635Z,8.70
2023-04-12T16:43:39.650Z,9.70
2023-04-12T16:46:44.301Z,9.80
2023-04-12T16:49:48.356Z,9.20
2023-04-12T16:52:52.922Z,10.60
2023-04-12T16:56:01.801Z,9.90
2023-04-12T16:59:06.794Z,10.60
2023-04-12T17:02:11.822Z,10.80
2023-04-12T17:05:18.272Z,11.00
2023-04-12T17:08:22.717Z,9.80
2023-04-12T17:11:27.664Z,12.10
2023-04-12T17:14:32.385Z,12.50
2023-04-12T17:17:36.542Z,10.90
2023-04-12T17:20:41.124Z,11.70
2023-04-12T17:23:46.079Z,11.80
2023-04-12T17:29:54.536Z,11.30
2023-04-12T17:33:01.252Z,10.70
2023-04-12T17:36:11.424Z,9.80
2023-04-12T17:39:16.323Z,10.90
2023-04-12T17:42:21.760Z,11.00
2023-04-12T17:45:25.797Z,11.00
2023-04-12T17:48:30.504Z,11.70
2023-04-12T17:51:34.496Z,10.20
2023-04-12T17:54:38.824Z,10.70
2023-04-12T17:57:44.387Z,9.60
2023-04-12T18:00:48.406Z,10.00
2023-04-12T18:03:52.523Z,8.70
2023-04-12T18:06:57.212Z,9.60
2023-04-12T18:10:02.394Z,9.20
2023-04-12T18:13:06.417Z,9.90
2023-04-12T18:16:10.488Z,9.60
2023-04-12T18:19:16.700Z,11.00
2023-04-12T18:22:20.731Z,10.10
2023-04-12T18:25:24.727Z,10.80
2023-04-12T18:28:31.413Z,10.80
2023-04-12T18:31:38.728Z,10.20
2023-04-12T18:34:42.715Z,10.30
2023-04-12T18:37:47.141Z,9.50
2023-04-12T18:43:57.250Z,10.60
2023-04-12T18:47:01.765Z,10.80
2023-04-12T18:50:07.466Z,10.10
2023-04-12T18:53:11.641Z,9.80
2023-04-12T18:56:18.419Z,12.00
2023-04-12T18:59:22.859Z,12.30
2023-04-12T19:02:28.581Z,15.60
2023-04-12T19:05:35.676Z,13.10
2023-04-12T19:08:41.894Z,13.20
2023-04-12T19:11:47.982Z,12.70
2023-04-12T19:14:51.895Z,12.60
2023-04-12T19:17:56.574Z,14.20
2023-04-12T19:21:00.666Z,15.10
2023-04-12T19:24:05.557Z,16.00
2023-04-12T19:27:09.457Z,14.00
2023-04-12T19:30:14.970Z,14.30
2023-04-12T19:33:19.661Z,14.70
2023-04-12T19:36:24.807Z,14.40
2023-04-12T19:39:29.575Z,16.60
2023-04-12T19:45:37.857Z,15.90
2023-04-12T19:48:42.886Z,15.50
2023-04-12T19:51:46.991Z,18.40
2023-04-12T19:54:52.624Z,19.50
2023-04-12T19:57:56.831Z,19.60
2023-04-12T20:01:03.072Z,18.70
2023-04-12T20:04:07.061Z,17.90
2023-04-12T20:07:11.675Z,22.00
2023-04-12T20:10:15.778Z,20.90
2023-04-12T20:13:19.690Z,21.20
2023-04-12T20:16:24.909Z,20.30
2023-04-12T20:19:28.948Z,25.30
2023-04-12T20:22:32.964Z,25.90
2023-04-12T20:25:37.905Z,23.90
2023-04-12T20:28:41.828Z,20.30
2023-04-12T20:31:47.889Z,26.30
2023-04-12T20:34:52.207Z,27.30
2023-04-12T20:37:56.622Z,24.40
2023-04-12T20:41:00.522Z,22.40
2023-04-12T20:44:04.559Z,21.20
2023-04-12T20:47:09.285Z,21.10
2023-04-12T20:50:13.359Z,22.10
2023-04-12T20:53:17.647Z,21.50
2023-04-12T20:56:21.666Z,18.80
2023-04-12T20:59:30.287Z,18.60
2023-04-12T21:02:35.049Z,19.40
2023-04-12T21:05:39.833Z,20.90
2023-04-12T21:08:43.941Z,19.40
2023-04-12T21:11:47.871Z,18.50
2023-04-12T21:14:51.808Z,17.30
2023-04-12T21:17:56.284Z,17.00
2023-04-12T21:21:00.944Z,16.50
2023-04-12T21:24:05.174Z,16.30
2023-04-12T21:27:09.190Z,16.10
2023-04-12T21:30:14.225Z,14.30
2023-04-12T21:33:24.635Z,17.00
2023-04-12T21:39:33.344Z,22.20
2023-04-12T21:42:38.018Z,33.80
2023-04-12T21:48:46.283Z,27.00
2023-04-12T21:51:52.257Z,21.60
2023-04-12T21:54:56.196Z,16.40
2023-04-12T21:58:00.326Z,17.80
2023-04-12T22:01:04.513Z,21.10
2023-04-12T22:04:08.492Z,19.30
2023-04-12T22:07:13.217Z,18.50
2023-04-12T22:10:18.850Z,20.00
2023-04-12T22:13:24.781Z,24.10
2023-04-12T22:16:28.930Z,24.90
2023-04-12T22:19:33.205Z,22.90
2023-04-12T22:22:37.536Z,24.30
2023-04-12T22:25:42.301Z,22.70
2023-04-12T22:28:48.525Z,23.10
2023-04-12T22:31:52.905Z,23.50
2023-04-12T22:35:08.278Z,23.30
2023-04-12T22:38:14.812Z,23.10
2023-04-12T22:41:19.447Z,23.20
2023-04-12T22:44:24.564Z,23.60
2023-04-12T22:47:28.819Z,24.10
2023-04-12T22:50:32.820Z,23.50
2023-04-12T22:53:36.843Z,23.20
2023-04-12T22:56:47.201Z,22.90
2023-04-12T22:59:52.429Z,24.30
2023-04-12T23:02:56.526Z,20.40
2023-04-12T23:06:00.590Z,22.50
2023-04-12T23:09:05.810Z,22.90
2023-04-12T23:12:09.809Z,21.80
2023-04-12T23:15:14.069Z,21.50
2023-04-12T23:18:18.282Z,20.40
2023-04-12T23:21:22.298Z,21.10
2023-04-12T23:24:26.316Z,20.70
2023-04-12T23:27:31.981Z,19.70
2023-04-12T23:30:35.986Z,20.50
2023-04-12T23:33:43.090Z,21.20
2023-04-12T23:36:50.869Z,22.80
2023-04-12T23:40:05.347Z,22.10
2023-04-12T23:43:09.338Z,21.00
2023-04-12T23:46:13.625Z,22.50
2023-04-12T23:49:17.616Z,21.00
2023-04-12T23:52:21.698Z,21.30
2023-04-12T23:55:25.727Z,22.20
2023-04-12T23:58:29.641Z,22.00
